ORMM/BSR METAR and TAF weather

Enter ICAO airport designator
Station Type Date Time Source
ORMM METAR 2022/01/26 07:00 UTC NOAA

ORMM 260700Z 09006KT 4000 HZ NSC 16/04 Q1017 NOSIG


Station Type Date Time Source
ORMM Decoded METAR 2022/01/26 07:00 UTC NOAA

Station name not available
Jan 26, 2022 - 02:00 AM EST / 2022.01.26 0700 UTC
Wind: from the E (090 degrees) at 7 MPH (6 KT):0
Visibility: 2 mile(s):0
Weather: haze
Temperature: 60 F (16 C)
Dew Point: 39 F (4 C)
Relative Humidity: 44%
Pressure (altimeter): 30.03 in. Hg (1017 hPa)
ob: ORMM 260700Z 09006KT 4000 HZ NSC 16/04 Q1017 NOSIG
cycle: 7

Station Type Date Time Source
ORMM TAF 2022/01/26 06:48 UTC NOAA

TAF ORMM 260400Z 2606/2706 VRB03KT 6000 NSC
BECMG 2607/2609 14010KT

Example: see airport list